VDKC weather

Kompong Cham Airport
Kompong Cham, Kampong Chaam, Cambodia

Public forecast

Using degrees Celsius for public forecast. Weather courtesy of forecast.io.

METAR (pilot weather report)

Closest report is Phnom Penh International Airport, 45.3 nm (83.9 km) SW. Retrieved 2019/04/24 22:30 UTC (0 seconds ago):

VDPP 242230Z 18007KT 9000 SCT017 SCT040 29/24 Q1007

TAF (pilot weather forecast)

Forecast is more than 6 hours old.

Closest forecast is Phnom Penh International Airport, 45.3 nm (83.9 km) SW. Retrieved 2019/04/24 12:00 UTC (10 hours ago):

TAF VDPP 241100Z 2412/2506 14006KT 9999 SCT017 TEMPO 2412/2415 SCT015 FEW017CB